Terminal Aerodrome Forecast
Issued by NWS

Home | Current Version | Previous Version | Text Only | Print | Product List | Glossary On
Versions: 1 2 3 4 5 6 7 8 9 10 11 12 13 14 15 16 17 18 19 20 21 22 23 24 25
000
FTUS45 KREV 100500
TAFRNO
TAF
KRNO 100525Z 1006/1106 31008KT P6SM FEW100
     FM100800 VRB03KT P6SM SKC
     FM101900 26008KT P6SM SCT080 SCT120
     FM102200 28010KT P6SM VCTS SCT080CB BKN120
     FM110200 29011G18KT P6SM FEW080 BKN120=

USA.gov is the U.S. government's official web portal to all federal, state and local government web resources and services.